sensor_id;sensor_type;location;lat;lon;timestamp;P1;durP1;ratioP1;P2;durP2;ratioP2
56830;SDS011;42713;42.676;23.352;2024-03-23T00:54:11;32.42;;;12.20;;
56830;SDS011;42713;42.676;23.352;2024-03-23T00:56:49;25.95;;;11.93;;
56830;SDS011;42713;42.676;23.352;2024-03-23T00:59:27;28.95;;;11.93;;
56830;SDS011;42713;42.676;23.352;2024-03-23T01:02:06;24.83;;;11.07;;
56830;SDS011;42713;42.676;23.352;2024-03-23T01:04:52;28.95;;;13.00;;
56830;SDS011;42713;42.676;23.352;2024-03-23T01:07:31;33.13;;;12.32;;
56830;SDS011;42713;42.676;23.352;2024-03-23T01:10:10;25.55;;;11.57;;
56830;SDS011;42713;42.676;23.352;2024-03-23T01:12:52;29.90;;;11.90;;
56830;SDS011;42713;42.676;23.352;2024-03-23T01:15:40;28.25;;;11.68;;
56830;SDS011;42713;42.676;23.352;2024-03-23T01:18:28;27.05;;;11.85;;
56830;SDS011;42713;42.676;23.352;2024-03-23T01:21:03;27.70;;;11.02;;
56830;SDS011;42713;42.676;23.352;2024-03-23T01:23:46;27.13;;;11.82;;
56830;SDS011;42713;42.676;23.352;2024-03-23T01:26:52;27.45;;;12.20;;
56830;SDS011;42713;42.676;23.352;2024-03-23T01:29:32;26.98;;;11.88;;
56830;SDS011;42713;42.676;23.352;2024-03-23T01:35:35;23.38;;;10.82;;
56830;SDS011;42713;42.676;23.352;2024-03-23T01:38:06;24.15;;;11.00;;
56830;SDS011;42713;42.676;23.352;2024-03-23T01:40:56;31.85;;;11.27;;
56830;SDS011;42713;42.676;23.352;2024-03-23T01:43:41;21.77;;;11.18;;
56830;SDS011;42713;42.676;23.352;2024-03-23T01:46:15;25.55;;;11.50;;
56830;SDS011;42713;42.676;23.352;2024-03-23T01:48:56;26.23;;;11.10;;
56830;SDS011;42713;42.676;23.352;2024-03-23T01:51:30;24.52;;;11.30;;
56830;SDS011;42713;42.676;23.352;2024-03-23T01:54:15;28.95;;;12.38;;
56830;SDS011;42713;42.676;23.352;2024-03-23T01:56:59;27.20;;;12.48;;
56830;SDS011;42713;42.676;23.352;2024-03-23T01:59:37;26.63;;;11.52;;
56830;SDS011;42713;42.676;23.352;2024-03-23T02:02:19;30.15;;;12.93;;
56830;SDS011;42713;42.676;23.352;2024-03-23T02:05:08;35.75;;;14.20;;
56830;SDS011;42713;42.676;23.352;2024-03-23T02:07:50;30.52;;;12.85;;
56830;SDS011;42713;42.676;23.352;2024-03-23T02:10:19;33.50;;;13.25;;
56830;SDS011;42713;42.676;23.352;2024-03-23T02:12:53;33.35;;;13.45;;
56830;SDS011;42713;42.676;23.352;2024-03-23T02:15:36;29.45;;;12.23;;
56830;SDS011;42713;42.676;23.352;2024-03-23T02:18:31;33.30;;;13.70;;
56830;SDS011;42713;42.676;23.352;2024-03-23T02:21:03;26.13;;;12.50;;
56830;SDS011;42713;42.676;23.352;2024-03-23T02:23:41;25.83;;;12.25;;
56830;SDS011;42713;42.676;23.352;2024-03-23T02:26:29;28.73;;;13.27;;
56830;SDS011;42713;42.676;23.352;2024-03-23T02:29:03;29.70;;;12.32;;
56830;SDS011;42713;42.676;23.352;2024-03-23T02:35:10;26.60;;;13.20;;
56830;SDS011;42713;42.676;23.352;2024-03-23T02:37:45;33.80;;;13.30;;
56830;SDS011;42713;42.676;23.352;2024-03-23T02:40:19;27.05;;;12.15;;
56830;SDS011;42713;42.676;23.352;2024-03-23T02:43:05;27.52;;;13.45;;
56830;SDS011;42713;42.676;23.352;2024-03-23T02:45:54;30.42;;;13.40;;
56830;SDS011;42713;42.676;23.352;2024-03-23T02:48:51;26.38;;;12.57;;
56830;SDS011;42713;42.676;23.352;2024-03-23T02:51:24;27.50;;;12.98;;
56830;SDS011;42713;42.676;23.352;2024-03-23T02:54:05;31.90;;;12.70;;
56830;SDS011;42713;42.676;23.352;2024-03-23T02:57:05;28.52;;;13.38;;
56830;SDS011;42713;42.676;23.352;2024-03-23T02:59:39;26.33;;;13.07;;
56830;SDS011;42713;42.676;23.352;2024-03-23T03:02:27;29.75;;;12.73;;
56830;SDS011;42713;42.676;23.352;2024-03-23T03:05:05;36.40;;;13.32;;
56830;SDS011;42713;42.676;23.352;2024-03-23T03:07:37;29.27;;;13.43;;
56830;SDS011;42713;42.676;23.352;2024-03-23T03:10:24;24.05;;;12.32;;
56830;SDS011;42713;42.676;23.352;2024-03-23T03:13:13;25.05;;;12.10;;
56830;SDS011;42713;42.676;23.352;2024-03-23T03:16:02;27.40;;;12.50;;
56830;SDS011;42713;42.676;23.352;2024-03-23T03:18:52;30.63;;;13.65;;
56830;SDS011;42713;42.676;23.352;2024-03-23T03:21:29;26.42;;;13.05;;
56830;SDS011;42713;42.676;23.352;2024-03-23T03:24:06;25.92;;;12.80;;
56830;SDS011;42713;42.676;23.352;2024-03-23T03:26:40;30.58;;;12.73;;
56830;SDS011;42713;42.676;23.352;2024-03-23T03:29:45;28.80;;;12.57;;
56830;SDS011;42713;42.676;23.352;2024-03-23T03:32:16;21.42;;;10.85;;
56830;SDS011;42713;42.676;23.352;2024-03-23T03:35:03;23.55;;;11.25;;
56830;SDS011;42713;42.676;23.352;2024-03-23T03:37:34;24.73;;;11.43;;
56830;SDS011;42713;42.676;23.352;2024-03-23T03:40:05;27.65;;;11.85;;
56830;SDS011;42713;42.676;23.352;2024-03-23T03:42:41;21.00;;;10.98;;
56830;SDS011;42713;42.676;23.352;2024-03-23T03:45:29;23.20;;;11.20;;
56830;SDS011;42713;42.676;23.352;2024-03-23T03:48:25;22.60;;;11.02;;
56830;SDS011;42713;42.676;23.352;2024-03-23T03:51:03;21.70;;;10.73;;
56830;SDS011;42713;42.676;23.352;2024-03-23T03:53:42;23.77;;;10.80;;
56830;SDS011;42713;42.676;23.352;2024-03-23T03:56:26;27.73;;;12.15;;
56830;SDS011;42713;42.676;23.352;2024-03-23T03:59:08;23.63;;;10.95;;
56830;SDS011;42713;42.676;23.352;2024-03-23T04:01:40;22.20;;;10.32;;
56830;SDS011;42713;42.676;23.352;2024-03-23T04:04:26;20.65;;;9.80;;
56830;SDS011;42713;42.676;23.352;2024-03-23T04:06:59;21.17;;;9.38;;
56830;SDS011;42713;42.676;23.352;2024-03-23T04:09:40;22.38;;;9.90;;
56830;SDS011;42713;42.676;23.352;2024-03-23T04:12:08;19.67;;;10.68;;
56830;SDS011;42713;42.676;23.352;2024-03-23T04:15:02;21.17;;;9.88;;
56830;SDS011;42713;42.676;23.352;2024-03-23T04:20:56;22.80;;;9.20;;
56830;SDS011;42713;42.676;23.352;2024-03-23T04:23:42;22.27;;;9.73;;
56830;SDS011;42713;42.676;23.352;2024-03-23T04:26:23;20.65;;;9.35;;
56830;SDS011;42713;42.676;23.352;2024-03-23T04:28:59;20.27;;;8.98;;
56830;SDS011;42713;42.676;23.352;2024-03-23T04:31:55;20.67;;;9.07;;
56830;SDS011;42713;42.676;23.352;2024-03-23T04:34:35;20.27;;;8.30;;
56830;SDS011;42713;42.676;23.352;2024-03-23T04:37:11;20.52;;;8.43;;
56830;SDS011;42713;42.676;23.352;2024-03-23T04:39:45;21.83;;;9.10;;
56830;SDS011;42713;42.676;23.352;2024-03-23T04:42:24;22.35;;;9.55;;
56830;SDS011;42713;42.676;23.352;2024-03-23T04:45:16;21.92;;;8.63;;
56830;SDS011;42713;42.676;23.352;2024-03-23T04:47:47;22.17;;;8.82;;
56830;SDS011;42713;42.676;23.352;2024-03-23T04:50:28;18.95;;;8.77;;
56830;SDS011;42713;42.676;23.352;2024-03-23T04:53:08;19.77;;;8.75;;
56830;SDS011;42713;42.676;23.352;2024-03-23T04:55:47;20.08;;;8.68;;
56830;SDS011;42713;42.676;23.352;2024-03-23T04:58:26;27.10;;;9.32;;
56830;SDS011;42713;42.676;23.352;2024-03-23T05:01:04;19.00;;;8.33;;
56830;SDS011;42713;42.676;23.352;2024-03-23T05:03:48;17.77;;;8.85;;
56830;SDS011;42713;42.676;23.352;2024-03-23T05:06:39;22.55;;;7.65;;
56830;SDS011;42713;42.676;23.352;2024-03-23T05:09:05;20.75;;;9.35;;
56830;SDS011;42713;42.676;23.352;2024-03-23T05:11:49;27.88;;;9.80;;
56830;SDS011;42713;42.676;23.352;2024-03-23T05:14:32;20.10;;;10.05;;
56830;SDS011;42713;42.676;23.352;2024-03-23T05:17:14;25.52;;;10.93;;
56830;SDS011;42713;42.676;23.352;2024-03-23T05:20:21;26.25;;;10.95;;
56830;SDS011;42713;42.676;23.352;2024-03-23T05:25:57;22.45;;;10.13;;
56830;SDS011;42713;42.676;23.352;2024-03-23T05:28:46;20.00;;;10.70;;
56830;SDS011;42713;42.676;23.352;2024-03-23T05:31:23;24.23;;;10.63;;
56830;SDS011;42713;42.676;23.352;2024-03-23T05:34:14;28.02;;;10.85;;
56830;SDS011;42713;42.676;23.352;2024-03-23T05:36:51;30.58;;;9.77;;
56830;SDS011;42713;42.676;23.352;2024-03-23T05:39:23;25.00;;;9.63;;
56830;SDS011;42713;42.676;23.352;2024-03-23T05:41:57;22.73;;;9.05;;
56830;SDS011;42713;42.676;23.352;2024-03-23T05:44:27;17.80;;;8.48;;
56830;SDS011;42713;42.676;23.352;2024-03-23T05:47:10;15.88;;;7.35;;
56830;SDS011;42713;42.676;23.352;2024-03-23T05:49:51;15.85;;;7.53;;
56830;SDS011;42713;42.676;23.352;2024-03-23T05:52:46;19.27;;;7.53;;
56830;SDS011;42713;42.676;23.352;2024-03-23T05:55:27;18.25;;;7.50;;
56830;SDS011;42713;42.676;23.352;2024-03-23T05:57:58;19.23;;;6.75;;
56830;SDS011;42713;42.676;23.352;2024-03-23T06:00:27;18.88;;;7.50;;
56830;SDS011;42713;42.676;23.352;2024-03-23T06:02:56;15.75;;;7.07;;
56830;SDS011;42713;42.676;23.352;2024-03-23T06:05:21;17.08;;;7.30;;
56830;SDS011;42713;42.676;23.352;2024-03-23T06:07:49;17.10;;;7.97;;
56830;SDS011;42713;42.676;23.352;2024-03-23T06:10:15;17.25;;;7.65;;
56830;SDS011;42713;42.676;23.352;2024-03-23T06:12:41;18.98;;;9.02;;
56830;SDS011;42713;42.676;23.352;2024-03-23T06:15:06;16.42;;;8.23;;
56830;SDS011;42713;42.676;23.352;2024-03-23T06:17:38;20.42;;;8.55;;
56830;SDS011;42713;42.676;23.352;2024-03-23T06:20:04;17.63;;;8.23;;
56830;SDS011;42713;42.676;23.352;2024-03-23T06:22:33;20.25;;;8.85;;
56830;SDS011;42713;42.676;23.352;2024-03-23T06:24:58;21.85;;;8.00;;
56830;SDS011;42713;42.676;23.352;2024-03-23T06:27:24;16.50;;;7.50;;
56830;SDS011;42713;42.676;23.352;2024-03-23T06:29:50;17.00;;;8.20;;
56830;SDS011;42713;42.676;23.352;2024-03-23T06:32:16;23.30;;;9.20;;
56830;SDS011;42713;42.676;23.352;2024-03-23T06:34:42;21.02;;;9.00;;
56830;SDS011;42713;42.676;23.352;2024-03-23T06:37:08;18.83;;;8.50;;
56830;SDS011;42713;42.676;23.352;2024-03-23T06:39:35;17.50;;;8.35;;
56830;SDS011;42713;42.676;23.352;2024-03-23T06:42:02;22.42;;;8.30;;
56830;SDS011;42713;42.676;23.352;2024-03-23T06:44:30;18.02;;;7.57;;
56830;SDS011;42713;42.676;23.352;2024-03-23T06:47:15;16.40;;;8.43;;
56830;SDS011;42713;42.676;23.352;2024-03-23T06:49:40;19.08;;;8.68;;
56830;SDS011;42713;42.676;23.352;2024-03-23T06:52:06;20.33;;;9.07;;
56830;SDS011;42713;42.676;23.352;2024-03-23T06:54:31;19.17;;;9.15;;
56830;SDS011;42713;42.676;23.352;2024-03-23T06:56:57;20.98;;;9.40;;
56830;SDS011;42713;42.676;23.352;2024-03-23T06:59:23;22.10;;;8.75;;
56830;SDS011;42713;42.676;23.352;2024-03-23T07:01:48;19.15;;;8.35;;
56830;SDS011;42713;42.676;23.352;2024-03-23T07:04:34;21.83;;;10.80;;
56830;SDS011;42713;42.676;23.352;2024-03-23T07:07:00;29.00;;;12.20;;
56830;SDS011;42713;42.676;23.352;2024-03-23T07:09:29;20.45;;;9.38;;
56830;SDS011;42713;42.676;23.352;2024-03-23T07:11:55;22.42;;;10.70;;
56830;SDS011;42713;42.676;23.352;2024-03-23T07:14:22;21.95;;;10.43;;
56830;SDS011;42713;42.676;23.352;2024-03-23T07:16:48;28.77;;;12.55;;
56830;SDS011;42713;42.676;23.352;2024-03-23T07:19:17;18.63;;;9.68;;
56830;SDS011;42713;42.676;23.352;2024-03-23T07:21:44;19.50;;;9.55;;
56830;SDS011;42713;42.676;23.352;2024-03-23T07:24:20;20.17;;;8.98;;
56830;SDS011;42713;42.676;23.352;2024-03-23T07:26:46;20.77;;;9.35;;
56830;SDS011;42713;42.676;23.352;2024-03-23T07:29:12;21.00;;;9.40;;
56830;SDS011;42713;42.676;23.352;2024-03-23T07:31:37;27.33;;;11.05;;
56830;SDS011;42713;42.676;23.352;2024-03-23T07:34:04;19.75;;;9.98;;
56830;SDS011;42713;42.676;23.352;2024-03-23T07:36:30;24.38;;;10.23;;
56830;SDS011;42713;42.676;23.352;2024-03-23T07:38:59;23.05;;;10.48;;
56830;SDS011;42713;42.676;23.352;2024-03-23T07:41:27;20.90;;;10.63;;
56830;SDS011;42713;42.676;23.352;2024-03-23T07:43:56;21.83;;;10.75;;
56830;SDS011;42713;42.676;23.352;2024-03-23T07:46:22;21.38;;;10.18;;
56830;SDS011;42713;42.676;23.352;2024-03-23T07:48:50;23.02;;;10.88;;
56830;SDS011;42713;42.676;23.352;2024-03-23T07:51:22;31.02;;;11.02;;
56830;SDS011;42713;42.676;23.352;2024-03-23T07:53:51;24.85;;;10.80;;
56830;SDS011;42713;42.676;23.352;2024-03-23T07:56:20;25.65;;;10.77;;
56830;SDS011;42713;42.676;23.352;2024-03-23T07:58:49;21.52;;;10.48;;
56830;SDS011;42713;42.676;23.352;2024-03-23T08:01:17;20.52;;;11.07;;
56830;SDS011;42713;42.676;23.352;2024-03-23T08:03:45;19.88;;;10.32;;
56830;SDS011;42713;42.676;23.352;2024-03-23T08:06:21;27.58;;;11.68;;
56830;SDS011;42713;42.676;23.352;2024-03-23T08:09:07;25.17;;;10.93;;
56830;SDS011;42713;42.676;23.352;2024-03-23T08:11:51;23.55;;;11.07;;
56830;SDS011;42713;42.676;23.352;2024-03-23T08:14:18;22.20;;;11.32;;
56830;SDS011;42713;42.676;23.352;2024-03-23T08:16:47;31.10;;;11.65;;
56830;SDS011;42713;42.676;23.352;2024-03-23T08:19:15;29.67;;;10.97;;
56830;SDS011;42713;42.676;23.352;2024-03-23T08:21:40;23.33;;;10.95;;
56830;SDS011;42713;42.676;23.352;2024-03-23T08:24:06;32.13;;;11.07;;
56830;SDS011;42713;42.676;23.352;2024-03-23T08:26:32;25.90;;;11.10;;
56830;SDS011;42713;42.676;23.352;2024-03-23T08:28:58;26.27;;;10.73;;
56830;SDS011;42713;42.676;23.352;2024-03-23T08:31:23;24.58;;;10.95;;
56830;SDS011;42713;42.676;23.352;2024-03-23T08:33:51;26.15;;;11.52;;
56830;SDS011;42713;42.676;23.352;2024-03-23T08:36:17;30.77;;;10.90;;
56830;SDS011;42713;42.676;23.352;2024-03-23T08:38:45;25.45;;;11.00;;
56830;SDS011;42713;42.676;23.352;2024-03-23T08:41:19;24.27;;;10.82;;
56830;SDS011;42713;42.676;23.352;2024-03-23T08:44:03;20.40;;;9.68;;
56830;SDS011;42713;42.676;23.352;2024-03-23T08:46:38;25.02;;;10.55;;
56830;SDS011;42713;42.676;23.352;2024-03-23T08:49:06;23.95;;;9.77;;
56830;SDS011;42713;42.676;23.352;2024-03-23T08:51:55;22.63;;;10.57;;
56830;SDS011;42713;42.676;23.352;2024-03-23T09:01:57;25.15;;;10.52;;
56830;SDS011;42713;42.676;23.352;2024-03-23T09:40:13;22.02;;;9.50;;
56830;SDS011;42713;42.676;23.352;2024-03-23T09:52:25;18.48;;;9.10;;
56830;SDS011;42713;42.676;23.352;2024-03-23T10:02:45;18.30;;;8.63;;
56830;SDS011;42713;42.676;23.352;2024-03-23T10:05:44;17.83;;;8.57;;
56830;SDS011;42713;42.676;23.352;2024-03-23T10:08:48;19.13;;;9.20;;
56830;SDS011;42713;42.676;23.352;2024-03-23T10:11:27;15.27;;;7.78;;
56830;SDS011;42713;42.676;23.352;2024-03-23T10:14:03;16.25;;;8.48;;
56830;SDS011;42713;42.676;23.352;2024-03-23T10:19:08;19.13;;;8.10;;
56830;SDS011;42713;42.676;23.352;2024-03-23T10:21:34;16.05;;;7.90;;
56830;SDS011;42713;42.676;23.352;2024-03-23T10:24:07;16.10;;;8.30;;
56830;SDS011;42713;42.676;23.352;2024-03-23T10:26:34;23.55;;;8.07;;
56830;SDS011;42713;42.676;23.352;2024-03-23T10:29:00;20.15;;;7.72;;
56830;SDS011;42713;42.676;23.352;2024-03-23T10:31:30;22.65;;;8.00;;
56830;SDS011;42713;42.676;23.352;2024-03-23T10:33:56;22.77;;;8.32;;
56830;SDS011;42713;42.676;23.352;2024-03-23T10:36:22;23.75;;;7.50;;
56830;SDS011;42713;42.676;23.352;2024-03-23T10:38:49;20.83;;;8.30;;
56830;SDS011;42713;42.676;23.352;2024-03-23T10:41:17;20.70;;;7.72;;
56830;SDS011;42713;42.676;23.352;2024-03-23T10:43:45;14.43;;;7.30;;
56830;SDS011;42713;42.676;23.352;2024-03-23T10:46:13;16.65;;;7.07;;
56830;SDS011;42713;42.676;23.352;2024-03-23T10:48:40;14.90;;;6.70;;
56830;SDS011;42713;42.676;23.352;2024-03-23T10:51:07;14.52;;;6.32;;
56830;SDS011;42713;42.676;23.352;2024-03-23T10:53:34;20.67;;;7.55;;
56830;SDS011;42713;42.676;23.352;2024-03-23T10:56:00;17.27;;;6.85;;
56830;SDS011;42713;42.676;23.352;2024-03-23T10:58:28;14.05;;;6.55;;
56830;SDS011;42713;42.676;23.352;2024-03-23T11:00:58;16.67;;;6.20;;
56830;SDS011;42713;42.676;23.352;2024-03-23T11:03:30;15.80;;;6.78;;
56830;SDS011;42713;42.676;23.352;2024-03-23T11:06:00;15.48;;;6.70;;
56830;SDS011;42713;42.676;23.352;2024-03-23T11:08:36;16.20;;;7.00;;
56830;SDS011;42713;42.676;23.352;2024-03-23T11:13:52;15.82;;;6.80;;
56830;SDS011;42713;42.676;23.352;2024-03-23T11:16:27;18.13;;;7.18;;
56830;SDS011;42713;42.676;23.352;2024-03-23T11:19:32;19.70;;;6.28;;
56830;SDS011;42713;42.676;23.352;2024-03-23T11:28:45;13.35;;;6.03;;
56830;SDS011;42713;42.676;23.352;2024-03-23T11:31:36;14.43;;;5.65;;
56830;SDS011;42713;42.676;23.352;2024-03-23T11:38:18;15.30;;;6.47;;
56830;SDS011;42713;42.676;23.352;2024-03-23T11:40:47;14.73;;;5.95;;
56830;SDS011;42713;42.676;23.352;2024-03-23T11:43:19;15.32;;;5.88;;
56830;SDS011;42713;42.676;23.352;2024-03-23T11:45:47;13.80;;;6.03;;
56830;SDS011;42713;42.676;23.352;2024-03-23T11:50:47;17.73;;;6.05;;
56830;SDS011;42713;42.676;23.352;2024-03-23T11:53:17;17.48;;;5.68;;
56830;SDS011;42713;42.676;23.352;2024-03-23T11:55:47;13.27;;;5.30;;
56830;SDS011;42713;42.676;23.352;2024-03-23T11:58:15;13.30;;;5.38;;
56830;SDS011;42713;42.676;23.352;2024-03-23T12:01:03;11.85;;;4.95;;
56830;SDS011;42713;42.676;23.352;2024-03-23T12:03:30;13.23;;;5.85;;
56830;SDS011;42713;42.676;23.352;2024-03-23T12:05:58;14.48;;;5.25;;
56830;SDS011;42713;42.676;23.352;2024-03-23T12:08:30;16.23;;;5.72;;
56830;SDS011;42713;42.676;23.352;2024-03-23T12:13:34;16.52;;;6.40;;
56830;SDS011;42713;42.676;23.352;2024-03-23T12:16:19;12.52;;;5.05;;
56830;SDS011;42713;42.676;23.352;2024-03-23T12:18:46;13.25;;;5.75;;
56830;SDS011;42713;42.676;23.352;2024-03-23T12:21:13;15.80;;;5.00;;
56830;SDS011;42713;42.676;23.352;2024-03-23T12:23:39;12.25;;;4.80;;
56830;SDS011;42713;42.676;23.352;2024-03-23T12:26:05;9.70;;;4.10;;
56830;SDS011;42713;42.676;23.352;2024-03-23T12:28:31;14.18;;;4.47;;
56830;SDS011;42713;42.676;23.352;2024-03-23T12:30:57;10.10;;;4.10;;
56830;SDS011;42713;42.676;23.352;2024-03-23T12:33:23;11.18;;;4.25;;
56830;SDS011;42713;42.676;23.352;2024-03-23T12:35:48;13.63;;;4.47;;
56830;SDS011;42713;42.676;23.352;2024-03-23T12:38:15;10.57;;;3.75;;
56830;SDS011;42713;42.676;23.352;2024-03-23T12:40:41;13.68;;;4.80;;
56830;SDS011;42713;42.676;23.352;2024-03-23T12:43:07;11.63;;;4.50;;
56830;SDS011;42713;42.676;23.352;2024-03-23T12:45:35;9.98;;;3.97;;
56830;SDS011;42713;42.676;23.352;2024-03-23T12:48:00;12.90;;;4.18;;
56830;SDS011;42713;42.676;23.352;2024-03-23T12:50:26;13.70;;;4.10;;
56830;SDS011;42713;42.676;23.352;2024-03-23T12:52:52;11.60;;;3.83;;
56830;SDS011;42713;42.676;23.352;2024-03-23T12:55:17;10.75;;;3.95;;
56830;SDS011;42713;42.676;23.352;2024-03-23T12:57:43;10.00;;;3.70;;
56830;SDS011;42713;42.676;23.352;2024-03-23T13:00:09;10.18;;;3.55;;
56830;SDS011;42713;42.676;23.352;2024-03-23T13:02:38;9.00;;;3.58;;
56830;SDS011;42713;42.676;23.352;2024-03-23T13:05:04;7.53;;;3.20;;
56830;SDS011;42713;42.676;23.352;2024-03-23T13:07:31;5.22;;;1.80;;
56830;SDS011;42713;42.676;23.352;2024-03-23T13:09:56;7.15;;;1.67;;
56830;SDS011;42713;42.676;23.352;2024-03-23T13:12:22;8.48;;;1.92;;
56830;SDS011;42713;42.676;23.352;2024-03-23T13:14:51;7.03;;;1.90;;
56830;SDS011;42713;42.676;23.352;2024-03-23T13:17:22;6.63;;;1.90;;
56830;SDS011;42713;42.676;23.352;2024-03-23T13:19:59;6.88;;;2.47;;
56830;SDS011;42713;42.676;23.352;2024-03-23T13:22:31;10.07;;;2.90;;
56830;SDS011;42713;42.676;23.352;2024-03-23T13:24:59;6.38;;;1.58;;
56830;SDS011;42713;42.676;23.352;2024-03-23T13:27:25;5.05;;;1.40;;
56830;SDS011;42713;42.676;23.352;2024-03-23T13:29:56;3.88;;;1.55;;
56830;SDS011;42713;42.676;23.352;2024-03-23T13:32:23;3.45;;;1.40;;
56830;SDS011;42713;42.676;23.352;2024-03-23T13:34:54;5.55;;;1.73;;
56830;SDS011;42713;42.676;23.352;2024-03-23T13:37:22;10.88;;;2.10;;
56830;SDS011;42713;42.676;23.352;2024-03-23T13:39:54;4.75;;;1.40;;
56830;SDS011;42713;42.676;23.352;2024-03-23T13:42:22;4.25;;;1.10;;
56830;SDS011;42713;42.676;23.352;2024-03-23T13:44:51;4.72;;;1.48;;
56830;SDS011;42713;42.676;23.352;2024-03-23T13:47:17;3.10;;;1.45;;
56830;SDS011;42713;42.676;23.352;2024-03-23T13:52:39;4.82;;;1.20;;
56830;SDS011;42713;42.676;23.352;2024-03-23T13:55:07;3.72;;;1.27;;
56830;SDS011;42713;42.676;23.352;2024-03-23T13:57:40;3.38;;;1.13;;
56830;SDS011;42713;42.676;23.352;2024-03-23T14:00:07;4.38;;;1.17;;
56830;SDS011;42713;42.676;23.352;2024-03-23T14:02:37;3.67;;;1.10;;
56830;SDS011;42713;42.676;23.352;2024-03-23T14:05:11;2.50;;;1.20;;
56830;SDS011;42713;42.676;23.352;2024-03-23T14:07:39;3.53;;;1.20;;
56830;SDS011;42713;42.676;23.352;2024-03-23T14:10:05;2.80;;;1.20;;
56830;SDS011;42713;42.676;23.352;2024-03-23T14:12:31;5.10;;;1.30;;
56830;SDS011;42713;42.676;23.352;2024-03-23T14:15:19;4.57;;;1.35;;
56830;SDS011;42713;42.676;23.352;2024-03-23T14:17:44;5.65;;;1.35;;
56830;SDS011;42713;42.676;23.352;2024-03-23T14:20:10;5.90;;;1.35;;
56830;SDS011;42713;42.676;23.352;2024-03-23T14:22:36;2.88;;;1.20;;
56830;SDS011;42713;42.676;23.352;2024-03-23T14:25:02;4.53;;;1.40;;
56830;SDS011;42713;42.676;23.352;2024-03-23T14:27:28;3.58;;;1.20;;
56830;SDS011;42713;42.676;23.352;2024-03-23T14:29:54;4.03;;;1.20;;
56830;SDS011;42713;42.676;23.352;2024-03-23T14:32:21;6.57;;;1.40;;
56830;SDS011;42713;42.676;23.352;2024-03-23T14:34:47;4.10;;;1.58;;
56830;SDS011;42713;42.676;23.352;2024-03-23T14:37:12;3.53;;;1.15;;
56830;SDS011;42713;42.676;23.352;2024-03-23T14:39:56;3.72;;;1.30;;
56830;SDS011;42713;42.676;23.352;2024-03-23T14:42:22;3.88;;;1.05;;
56830;SDS011;42713;42.676;23.352;2024-03-23T14:44:51;4.70;;;1.48;;
56830;SDS011;42713;42.676;23.352;2024-03-23T14:47:18;4.47;;;1.33;;
56830;SDS011;42713;42.676;23.352;2024-03-23T14:49:44;3.20;;;1.30;;
56830;SDS011;42713;42.676;23.352;2024-03-23T14:52:15;5.40;;;1.50;;
56830;SDS011;42713;42.676;23.352;2024-03-23T14:54:41;3.75;;;1.30;;
56830;SDS011;42713;42.676;23.352;2024-03-23T14:57:07;3.58;;;1.33;;
56830;SDS011;42713;42.676;23.352;2024-03-23T14:59:52;3.63;;;1.10;;
56830;SDS011;42713;42.676;23.352;2024-03-23T15:02:17;5.63;;;1.30;;
56830;SDS011;42713;42.676;23.352;2024-03-23T15:04:43;4.20;;;1.40;;
56830;SDS011;42713;42.676;23.352;2024-03-23T15:07:09;3.78;;;1.40;;
56830;SDS011;42713;42.676;23.352;2024-03-23T15:09:34;4.40;;;1.60;;
56830;SDS011;42713;42.676;23.352;2024-03-23T15:12:00;5.88;;;1.75;;
56830;SDS011;42713;42.676;23.352;2024-03-23T15:14:25;6.35;;;2.08;;
56830;SDS011;42713;42.676;23.352;2024-03-23T15:16:51;7.15;;;1.73;;
56830;SDS011;42713;42.676;23.352;2024-03-23T15:19:18;5.05;;;1.73;;
56830;SDS011;42713;42.676;23.352;2024-03-23T15:21:43;6.30;;;1.80;;
56830;SDS011;42713;42.676;23.352;2024-03-23T15:24:09;3.47;;;1.60;;
56830;SDS011;42713;42.676;23.352;2024-03-23T15:26:36;6.38;;;2.10;;
56830;SDS011;42713;42.676;23.352;2024-03-23T15:29:02;5.70;;;1.80;;
56830;SDS011;42713;42.676;23.352;2024-03-23T15:31:28;5.75;;;1.60;;
56830;SDS011;42713;42.676;23.352;2024-03-23T15:34:13;3.22;;;1.48;;
56830;SDS011;42713;42.676;23.352;2024-03-23T15:36:38;7.28;;;1.33;;
56830;SDS011;42713;42.676;23.352;2024-03-23T15:39:07;5.18;;;1.50;;
56830;SDS011;42713;42.676;23.352;2024-03-23T15:41:35;5.30;;;1.40;;
56830;SDS011;42713;42.676;23.352;2024-03-23T15:44:01;3.00;;;1.30;;
56830;SDS011;42713;42.676;23.352;2024-03-23T15:46:27;3.60;;;1.30;;
56830;SDS011;42713;42.676;23.352;2024-03-23T15:48:52;4.07;;;1.40;;
56830;SDS011;42713;42.676;23.352;2024-03-23T15:51:19;7.20;;;1.70;;
56830;SDS011;42713;42.676;23.352;2024-03-23T15:53:45;5.25;;;1.80;;
56830;SDS011;42713;42.676;23.352;2024-03-23T15:56:10;15.35;;;2.30;;
56830;SDS011;42713;42.676;23.352;2024-03-23T15:58:36;7.45;;;2.55;;
56830;SDS011;42713;42.676;23.352;2024-03-23T16:03:29;10.43;;;2.22;;
56830;SDS011;42713;42.676;23.352;2024-03-23T16:05:58;5.85;;;1.77;;
56830;SDS011;42713;42.676;23.352;2024-03-23T16:08:32;7.72;;;2.30;;
56830;SDS011;42713;42.676;23.352;2024-03-23T16:11:05;7.00;;;2.35;;
56830;SDS011;42713;42.676;23.352;2024-03-23T16:13:32;11.95;;;1.95;;
56830;SDS011;42713;42.676;23.352;2024-03-23T16:16:01;8.23;;;1.92;;
56830;SDS011;42713;42.676;23.352;2024-03-23T16:18:31;9.07;;;2.15;;
56830;SDS011;42713;42.676;23.352;2024-03-23T16:21:00;13.90;;;2.13;;
56830;SDS011;42713;42.676;23.352;2024-03-23T16:23:31;8.50;;;2.22;;
56830;SDS011;42713;42.676;23.352;2024-03-23T16:31:05;10.23;;;3.00;;
56830;SDS011;42713;42.676;23.352;2024-03-23T16:37:01;12.57;;;3.15;;
56830;SDS011;42713;42.676;23.352;2024-03-23T16:42:58;7.32;;;2.65;;
56830;SDS011;42713;42.676;23.352;2024-03-23T16:49:25;8.70;;;2.70;;
56830;SDS011;42713;42.676;23.352;2024-03-23T16:51:52;7.93;;;2.30;;
56830;SDS011;42713;42.676;23.352;2024-03-23T16:54:25;7.88;;;2.70;;
56830;SDS011;42713;42.676;23.352;2024-03-23T16:57:12;7.75;;;2.75;;
56830;SDS011;42713;42.676;23.352;2024-03-23T16:59:59;8.63;;;2.25;;
56830;SDS011;42713;42.676;23.352;2024-03-23T17:03:03;12.80;;;3.90;;
56830;SDS011;42713;42.676;23.352;2024-03-23T17:05:51;6.72;;;2.75;;
56830;SDS011;42713;42.676;23.352;2024-03-23T17:08:27;5.38;;;2.15;;
56830;SDS011;42713;42.676;23.352;2024-03-23T17:11:19;6.60;;;2.72;;
56830;SDS011;42713;42.676;23.352;2024-03-23T17:13:49;6.80;;;2.40;;
56830;SDS011;42713;42.676;23.352;2024-03-23T17:16:20;6.35;;;2.38;;
56830;SDS011;42713;42.676;23.352;2024-03-23T17:19:00;6.15;;;2.10;;
56830;SDS011;42713;42.676;23.352;2024-03-23T17:21:26;9.18;;;2.85;;
56830;SDS011;42713;42.676;23.352;2024-03-23T17:23:53;7.95;;;2.80;;
56830;SDS011;42713;42.676;23.352;2024-03-23T17:26:24;6.05;;;2.70;;
56830;SDS011;42713;42.676;23.352;2024-03-23T17:28:52;7.43;;;2.65;;
56830;SDS011;42713;42.676;23.352;2024-03-23T17:31:26;9.85;;;2.50;;
56830;SDS011;42713;42.676;23.352;2024-03-23T17:34:14;10.15;;;2.72;;
56830;SDS011;42713;42.676;23.352;2024-03-23T17:36:43;6.97;;;2.60;;
56830;SDS011;42713;42.676;23.352;2024-03-23T17:39:23;8.73;;;3.35;;
56830;SDS011;42713;42.676;23.352;2024-03-23T17:41:49;10.32;;;3.58;;
56830;SDS011;42713;42.676;23.352;2024-03-23T17:44:17;11.35;;;3.20;;
56830;SDS011;42713;42.676;23.352;2024-03-23T17:46:52;8.82;;;3.30;;